Time;durP1;ratioP1;P1;durP2;ratioP2;P2;SDS_P1;SDS_P2;PMS_P1;PMS_P2;Temp;Humidity;BMP_temperature;BMP_pressure;BME280_temperature;BME280_humidity;BME280_pressure;Samples;Min_cycle;Max_cycle;Signal;HPM_P1;HPM_P2
2022/11/22 00:00:38;;;;;;;53.23;30.92;;;;;;;2.06;78.86;96081.58;1728903;82;27392;-73
2022/11/22 00:03:07;;;;;;;53.58;30.80;;;;;;;2.01;78.91;96083.17;1728912;82;25435;-70
2022/11/22 00:05:34;;;;;;;53.98;30.20;;;;;;;2.00;79.03;96085.52;1729143;83;25758;-70
2022/11/22 00:08:01;;;;;;;57.05;32.88;;;;;;;1.95;78.93;96079.92;1729204;82;26706;-71
2022/11/22 00:10:28;;;;;;;52.10;27.85;;;;;;;1.88;78.85;96081.71;1729432;82;25672;-72
2022/11/22 00:12:54;;;;;;;47.43;28.07;;;;;;;1.81;78.77;96087.77;1729186;83;27361;-71
2022/11/22 00:15:21;;;;;;;51.42;28.40;;;;;;;1.76;78.83;96087.53;1728886;83;25629;-72
2022/11/22 00:17:48;;;;;;;51.80;26.93;;;;;;;1.73;78.73;96092.40;1729059;82;25770;-71
2022/11/22 00:20:14;;;;;;;40.03;23.83;;;;;;;1.61;78.39;96082.76;1730070;82;25978;-71
2022/11/22 00:22:41;;;;;;;44.42;23.20;;;;;;;1.50;78.39;96080.59;1733438;82;25825;-71
2022/11/22 00:25:08;;;;;;;46.95;25.35;;;;;;;1.46;78.45;96079.30;1733691;82;28306;-72
2022/11/22 00:27:35;;;;;;;43.98;24.80;;;;;;;1.41;78.46;96074.56;1733533;82;25755;-70
2022/11/22 00:30:02;;;;;;;40.58;23.42;;;;;;;1.37;78.37;96077.77;1733578;82;25785;-71
2022/11/22 00:32:29;;;;;;;42.95;24.23;;;;;;;1.32;78.25;96077.02;1733532;81;26013;-72
2022/11/22 00:34:55;;;;;;;41.75;25.00;;;;;;;1.27;78.13;96080.73;1733638;82;25746;-71
2022/11/22 00:37:22;;;;;;;46.37;25.95;;;;;;;1.16;78.04;96084.36;1733652;82;27479;-71
2022/11/22 00:39:48;;;;;;;46.20;26.52;;;;;;;1.12;78.10;96085.73;1733185;82;25723;-71
2022/11/22 00:42:15;;;;;;;40.90;22.15;;;;;;;1.05;78.07;96086.48;1733663;82;25759;-71
2022/11/22 00:44:41;;;;;;;38.92;22.05;;;;;;;1.01;78.07;96085.20;1733495;82;25836;-73
2022/11/22 00:47:08;;;;;;;41.83;22.25;;;;;;;0.96;77.98;96088.92;1733579;82;25908;-73
2022/11/22 00:49:34;;;;;;;38.95;22.52;;;;;;;0.87;77.83;96086.02;1733495;82;28272;-71
2022/11/22 00:52:01;;;;;;;39.45;23.85;;;;;;;0.81;78.00;96088.59;1733464;82;25879;-70
2022/11/22 00:54:28;;;;;;;40.60;23.98;;;;;;;0.79;78.16;96087.45;1733607;82;25715;-71
2022/11/22 00:56:54;;;;;;;39.90;24.92;;;;;;;0.80;78.22;96089.09;1733560;82;25998;-71
2022/11/22 00:59:21;;;;;;;40.95;26.35;;;;;;;0.79;78.21;96101.23;1733736;82;25418;-70
2022/11/22 01:01:48;;;;;;;40.28;24.90;;;;;;;0.77;78.21;96097.42;1733501;82;27398;-73
2022/11/22 01:04:14;;;;;;;40.43;25.48;;;;;;;0.73;78.10;96102.77;1733562;82;25461;-71
2022/11/22 01:06:41;;;;;;;46.83;25.27;;;;;;;0.66;78.09;96107.17;1733414;82;25730;-73
2022/11/22 01:09:07;;;;;;;36.03;21.62;;;;;;;0.62;78.12;96097.91;1733594;82;26089;-73
2022/11/22 01:11:34;;;;;;;36.60;22.67;;;;;;;0.60;78.10;96101.27;1733566;82;25748;-71
2022/11/22 01:14:01;;;;;;;36.75;21.73;;;;;;;0.57;78.05;96106.44;1733492;82;28182;-69
2022/11/22 01:16:27;;;;;;;39.50;23.92;;;;;;;0.46;77.79;96109.53;1733402;81;25688;-74
2022/11/22 01:18:54;;;;;;;38.25;24.90;;;;;;;0.37;77.83;96110.58;1733673;82;25211;-74
2022/11/22 01:21:20;;;;;;;36.53;23.18;;;;;;;0.34;77.95;96113.63;1742546;81;27010;-70
2022/11/22 01:23:47;;;;;;;38.83;23.57;;;;;;;0.33;78.00;96115.45;1750241;82;25738;-70
2022/11/22 01:26:13;;;;;;;35.95;23.62;;;;;;;0.28;77.95;96116.47;1750220;82;27637;-70
2022/11/22 01:28:40;;;;;;;36.65;22.90;;;;;;;0.25;77.97;96123.46;1750069;82;25236;-71
2022/11/22 01:31:07;;;;;;;36.23;23.20;;;;;;;0.24;78.09;96123.66;1750215;82;25716;-71
2022/11/22 01:33:33;;;;;;;36.08;23.90;;;;;;;0.22;78.18;96128.32;1750187;81;25977;-69
2022/11/22 01:36:00;;;;;;;37.58;24.50;;;;;;;0.21;78.28;96131.48;1750453;82;25655;-70
2022/11/22 01:38:27;;;;;;;37.95;24.25;;;;;;;0.22;78.26;96133.62;1750092;82;27467;-70
2022/11/22 01:40:53;;;;;;;35.58;23.40;;;;;;;0.18;78.12;96138.45;1750333;82;26061;-71
2022/11/22 01:43:28;;;;;;;36.30;23.85;;;;;;;0.16;78.11;96142.28;1750310;82;25702;-70
2022/11/22 01:45:57;;;;;;;38.33;22.73;;;;;;;0.10;78.14;96142.52;1750311;82;26001;-71
2022/11/22 01:48:44;;;;;;;40.00;23.83;;;;;;;0.10;78.28;96145.66;1750477;82;25489;-72
2022/11/22 01:51:31;;;;;;;42.65;24.20;;;;;;;0.06;78.31;96147.84;1667127;86;28463;-74
2022/11/22 01:54:02;;;;;;;38.88;24.25;;;;;;;0.02;78.46;96146.53;1613589;88;25916;-70
2022/11/22 01:56:29;;;;;;;34.43;23.38;;;;;;;-0.03;78.61;96144.92;1613704;88;25882;-69
2022/11/22 01:59:01;;;;;;;30.97;22.85;;;;;;;-0.04;78.72;96137.46;1613455;88;26115;-70
2022/11/22 02:01:28;;;;;;;33.95;23.22;;;;;;;-0.07;78.69;96127.20;1568605;91;25849;-71
2022/11/22 02:03:57;;;;;;;35.65;23.67;;;;;;;-0.15;78.69;96123.28;1543155;92;27431;-70
2022/11/22 02:06:29;;;;;;;31.95;22.02;;;;;;;-0.18;78.85;96132.09;1568150;91;25680;-70
2022/11/22 02:09:10;;;;;;;36.23;24.52;;;;;;;-0.17;78.92;96136.39;1577228;90;25345;-72
2022/11/22 02:11:44;;;;;;;35.13;21.30;;;;;;;-0.15;78.89;96127.77;1552331;92;26162;-71
2022/11/22 02:14:12;;;;;;;33.13;20.48;;;;;;;-0.23;78.67;96123.81;1553224;92;26218;-73
2022/11/22 02:16:41;;;;;;;33.48;19.40;;;;;;;-0.26;78.62;96116.23;1552959;92;27405;-70
2022/11/22 02:19:13;;;;;;;30.77;19.60;;;;;;;-0.36;78.70;96115.94;1552888;92;25916;-70
2022/11/22 02:21:39;;;;;;;32.33;18.50;;;;;;;-0.38;78.91;96106.03;1536355;92;25873;-71
2022/11/22 02:24:23;;;;;;;27.22;17.90;;;;;;;-0.37;79.06;96106.36;1558991;92;26834;-70
2022/11/22 02:26:49;;;;;;;25.37;17.62;;;;;;;-0.39;79.15;96100.40;1555946;92;25450;-70
2022/11/22 02:29:17;;;;;;;26.27;17.92;;;;;;;-0.39;79.21;96102.23;1558933;92;27373;-70
2022/11/22 02:31:46;;;;;;;24.50;16.70;;;;;;;-0.39;79.22;96093.77;1558900;92;26427;-73
2022/11/22 02:34:13;;;;;;;22.52;15.93;;;;;;;-0.38;79.24;96095.42;1558962;92;25823;-69
2022/11/22 02:36:50;;;;;;;22.77;16.57;;;;;;;-0.37;79.28;96097.08;1558889;92;26037;-70
2022/11/22 02:39:22;;;;;;;21.05;14.83;;;;;;;-0.33;79.34;96096.70;1564835;90;25938;-70
2022/11/22 02:41:50;;;;;;;26.45;20.35;;;;;;;-0.32;79.28;96095.70;1555394;92;28734;-70
2022/11/22 02:44:18;;;;;;;21.80;16.50;;;;;;;-0.31;79.17;96099.52;1555121;91;25889;-70
2022/11/22 02:46:54;;;;;;;22.02;14.58;;;;;;;-0.33;79.12;96096.70;1555291;92;25774;-72
2022/11/22 02:49:23;;;;;;;20.57;15.53;;;;;;;-0.33;79.17;96095.38;1555209;92;26061;-70
2022/11/22 02:51:54;;;;;;;21.40;14.93;;;;;;;-0.31;79.23;96103.98;1580953;90;25541;-70
2022/11/22 02:54:20;;;;;;;18.82;13.50;;;;;;;-0.30;79.26;96099.02;1583952;90;28325;-70
2022/11/22 02:56:47;;;;;;;23.15;14.93;;;;;;;-0.30;79.18;96099.02;1584082;90;26233;-71
2022/11/22 02:59:13;;;;;;;24.05;14.90;;;;;;;-0.32;79.10;96095.20;1584009;90;25406;-70
2022/11/22 03:01:41;;;;;;;25.88;15.25;;;;;;;-0.33;79.05;96096.70;1583992;90;26120;-73
2022/11/22 03:04:08;;;;;;;23.42;16.02;;;;;;;-0.36;78.97;96094.72;1579443;90;25982;-74
2022/11/22 03:06:34;;;;;;;20.48;15.30;;;;;;;-0.39;78.95;96089.80;1587973;90;28157;-72
2022/11/22 03:09:01;;;;;;;24.52;14.93;;;;;;;-0.40;78.87;96085.48;1604322;89;25819;-71
2022/11/22 03:11:27;;;;;;;24.37;16.17;;;;;;;-0.42;78.73;96080.86;1628256;88;26707;-73
2022/11/22 03:13:54;;;;;;;27.95;16.12;;;;;;;-0.48;78.62;96081.55;1628176;88;25982;-70
2022/11/22 03:16:20;;;;;;;24.98;16.15;;;;;;;-0.56;78.64;96074.98;1628178;88;25826;-74
2022/11/22 03:18:47;;;;;;;26.95;18.25;;;;;;;-0.56;78.73;96074.15;1628052;88;27442;-73
2022/11/22 03:21:13;;;;;;;45.65;36.33;;;;;;;-0.58;78.69;96073.00;1635946;86;25781;-71
2022/11/22 03:23:40;;;;;;;36.33;26.00;;;;;;;-0.60;78.71;96074.98;1656497;86;25400;-73
2022/11/22 03:26:11;;;;;;;38.38;20.50;;;;;;;-0.61;78.69;96077.34;1656502;86;26068;-73
2022/11/22 03:28:37;;;;;;;28.85;18.60;;;;;;;-0.62;78.69;96073.04;1656777;86;26788;-74
2022/11/22 03:31:06;;;;;;;30.75;18.57;;;;;;;-0.63;78.51;96075.36;1656792;86;27437;-71
2022/11/22 03:33:35;;;;;;;32.08;18.80;;;;;;;-0.67;78.39;96082.00;1656621;86;25492;-70
2022/11/22 03:36:03;;;;;;;30.45;17.32;;;;;;;-0.71;78.34;96074.06;1656787;86;25800;-71
2022/11/22 03:38:30;;;;;;;29.57;17.40;;;;;;;-0.75;78.34;96072.28;1671806;84;26282;-71
2022/11/22 03:40:57;;;;;;;26.23;16.27;;;;;;;-0.78;78.31;96077.92;1723328;83;25660;-70
2022/11/22 03:43:23;;;;;;;24.43;16.20;;;;;;;-0.84;78.24;96085.72;1723146;83;28391;-71
2022/11/22 03:45:50;;;;;;;23.92;15.50;;;;;;;-0.87;78.22;96088.73;1688366;85;25490;-73
2022/11/22 03:48:18;;;;;;;29.63;16.97;;;;;;;-0.90;78.29;96097.84;1711929;83;25694;-71
2022/11/22 03:50:45;;;;;;;25.48;16.62;;;;;;;-0.91;78.32;96092.22;1717753;83;26048;-72
2022/11/22 03:53:12;;;;;;;29.48;17.02;;;;;;;-0.92;78.33;96084.44;1717840;83;25732;-70
2022/11/22 03:55:39;;;;;;;31.33;17.60;;;;;;;-0.95;78.29;96076.83;1717803;83;27659;-69
2022/11/22 03:58:06;;;;;;;29.40;17.25;;;;;;;-0.97;78.30;96078.36;1717698;83;25869;-72
2022/11/22 04:00:34;;;;;;;29.82;16.40;;;;;;;-0.98;78.25;96079.84;1717745;83;25806;-71
2022/11/22 04:03:00;;;;;;;26.77;17.48;;;;;;;-1.00;78.22;96085.81;1717775;83;25981;-74
2022/11/22 04:05:27;;;;;;;26.90;18.67;;;;;;;-1.02;78.18;96086.47;1717701;83;25656;-70
2022/11/22 04:07:56;;;;;;;30.70;18.02;;;;;;;-1.05;78.18;96088.13;1717590;83;27607;-71
2022/11/22 04:10:24;;;;;;;28.60;17.70;;;;;;;-1.08;78.05;96086.65;1717668;83;25986;-70
2022/11/22 04:12:50;;;;;;;26.10;16.97;;;;;;;-1.12;78.04;96089.33;1717780;83;25711;-70
2022/11/22 04:15:17;;;;;;;25.32;15.78;;;;;;;-1.12;78.10;96083.53;1717715;83;25969;-69
2022/11/22 04:17:46;;;;;;;34.20;18.77;;;;;;;-1.14;78.07;96082.87;1717732;83;25668;-70
2022/11/22 04:23:13;;;;;;;27.67;17.25;;;;;;;-1.19;77.97;96081.23;1717388;83;25721;-73
2022/11/22 04:25:45;;;;;;;23.67;15.90;;;;;;;-1.23;77.96;96083.91;1674295;85;25760;-70
2022/11/22 04:28:13;;;;;;;24.95;16.30;;;;;;;-1.27;78.12;96085.23;1643887;87;26514;-74
2022/11/22 04:33:25;;;;;;;26.87;18.48;;;;;;;-1.27;78.34;96083.91;1643738;87;27443;-70
2022/11/22 04:35:53;;;;;;;34.23;24.67;;;;;;;-1.27;78.35;96085.23;1643926;87;25812;-70
2022/11/22 04:38:20;;;;;;;41.70;29.65;;;;;;;-1.27;78.37;96081.27;1643803;87;25829;-71
2022/11/22 04:40:47;;;;;;;43.60;30.20;;;;;;;-1.26;78.33;96086.89;1643580;87;26149;-75
2022/11/22 04:46:11;;;;;;;45.80;27.55;;;;;;;-1.29;78.19;96080.60;1664859;86;28051;-70
2022/11/22 04:48:38;;;;;;;44.25;29.05;;;;;;;-1.30;78.19;96082.92;1638331;87;25842;-73
2022/11/22 04:53:51;;;;;;;44.33;28.60;;;;;;;-1.33;78.20;96079.81;1638255;87;26053;-70
2022/11/22 04:56:18;;;;;;;52.33;33.83;;;;;;;-1.37;78.18;96071.87;1664838;86;25717;-71
2022/11/22 04:58:44;;;;;;;59.27;40.65;;;;;;;-1.37;78.20;96070.05;1638461;87;27447;-72
2022/11/22 05:01:11;;;;;;;77.32;48.35;;;;;;;-1.37;78.23;96072.70;1664803;86;25775;-73
2022/11/22 05:03:37;;;;;;;95.15;53.90;;;;;;;-1.37;78.18;96074.02;1638510;87;25838;-71
2022/11/22 05:06:05;;;;;;;107.17;57.55;;;;;;;-1.38;78.16;96076.83;1664838;86;26654;-71
2022/11/22 05:08:32;;;;;;;120.67;59.93;;;;;;;-1.41;78.11;96075.34;1638475;86;25557;-70
2022/11/22 05:10:58;;;;;;;134.55;67.17;;;;;;;-1.43;78.12;96070.71;1665106;86;28026;-74
2022/11/22 05:13:35;;;;;;;125.30;61.00;;;;;;;-1.45;78.07;96074.84;1638555;87;26002;-71
2022/11/22 05:16:06;;;;;;;97.25;51.30;;;;;;;-1.48;78.07;96079.18;1664658;86;36110;-70
2022/11/22 05:18:34;;;;;;;91.80;49.90;;;;;;;-1.50;78.07;96073.72;1638690;87;26036;-72
2022/11/22 05:21:10;;;;;;;94.03;51.83;;;;;;;-1.50;78.05;96080.34;1664781;86;25807;-70
2022/11/22 05:23:55;;;;;;;84.65;45.55;;;;;;;-1.52;78.07;96078.35;1602233;89;27428;-74
2022/11/22 05:26:28;;;;;;;86.75;47.23;;;;;;;-1.55;78.07;96072.89;1660227;86;25826;-69
2022/11/22 05:28:58;;;;;;;89.20;49.30;;;;;;;-1.57;78.05;96074.08;1660124;86;25779;-71
2022/11/22 05:31:26;;;;;;;99.77;57.53;;;;;;;-1.57;78.08;96072.76;1660259;86;26168;-73
2022/11/22 05:33:56;;;;;;;118.77;66.17;;;;;;;-1.58;78.07;96074.58;1660180;86;25812;-72
2022/11/22 05:36:23;;;;;;;106.63;59.58;;;;;;;-1.60;78.05;96079.20;1660115;86;27443;-71
2022/11/22 05:38:52;;;;;;;111.72;60.30;;;;;;;-1.62;78.01;96073.75;1660040;86;25824;-71
2022/11/22 05:41:19;;;;;;;116.22;66.30;;;;;;;-1.64;77.96;96073.91;1660178;86;25706;-70
2022/11/22 05:43:46;;;;;;;109.12;63.85;;;;;;;-1.65;77.96;96068.78;1660159;86;25964;-70
2022/11/22 05:46:19;;;;;;;114.32;60.92;;;;;;;-1.66;77.95;96079.03;1660309;86;25792;-70
2022/11/22 05:48:47;;;;;;;100.40;54.53;;;;;;;-1.68;77.92;96079.20;1660264;86;27000;-71
2022/11/22 05:51:18;;;;;;;106.75;55.52;;;;;;;-1.71;77.85;96076.09;1660029;86;25548;-70
2022/11/22 05:53:45;;;;;;;104.47;53.25;;;;;;;-1.72;77.90;96076.58;1660056;86;25739;-70
2022/11/22 05:56:19;;;;;;;98.03;50.75;;;;;;;-1.74;77.92;96081.70;1660159;86;26298;-71
2022/11/22 05:58:46;;;;;;;98.50;50.43;;;;;;;-1.75;77.92;96086.17;1660159;86;25902;-72
2022/11/22 06:01:17;;;;;;;93.33;48.87;;;;;;;-1.75;77.91;96088.81;1659906;86;28225;-70
2022/11/22 06:03:44;;;;;;;103.97;52.25;;;;;;;-1.76;77.89;96081.87;1635384;87;25742;-73
2022/11/22 06:06:11;;;;;;;101.82;51.48;;;;;;;-1.75;77.89;96082.69;1626056;88;25738;-73
2022/11/22 06:08:42;;;;;;;98.37;47.85;;;;;;;-1.77;77.85;96079.38;1630205;88;26041;-70
2022/11/22 06:11:15;;;;;;;95.92;46.90;;;;;;;-1.79;77.84;96084.02;1687681;85;25797;-70
2022/11/22 06:13:43;;;;;;;101.18;50.05;;;;;;;-1.81;77.85;96082.84;1651919;86;27400;-71
2022/11/22 06:16:11;;;;;;;90.10;48.13;;;;;;;-1.83;77.86;96090.98;1687820;85;25686;-71
2022/11/22 06:18:38;;;;;;;98.82;55.75;;;;;;;-1.86;77.79;96087.34;1651766;86;25704;-73
2022/11/22 06:21:09;;;;;;;87.05;50.85;;;;;;;-1.88;77.79;96097.25;1708808;83;25970;-70
2022/11/22 06:23:36;;;;;;;98.17;51.50;;;;;;;-1.90;77.83;96097.91;1653206;86;25913;-70
2022/11/22 06:26:06;;;;;;;100.90;52.30;;;;;;;-1.90;77.84;96103.20;1652346;86;27414;-71
2022/11/22 06:28:35;;;;;;;87.82;47.25;;;;;;;-1.90;77.83;96099.23;1652197;86;25490;-71
2022/11/22 06:31:09;;;;;;;88.60;43.63;;;;;;;-1.91;77.83;96098.90;1652165;86;25839;-73
2022/11/22 06:33:36;;;;;;;83.07;46.13;;;;;;;-1.90;77.82;96096.59;1652235;86;26783;-70
2022/11/22 06:36:14;;;;;;;86.25;47.95;;;;;;;-1.90;77.83;96101.05;1652381;86;25566;-70
2022/11/22 06:38:43;;;;;;;97.37;53.95;;;;;;;-1.89;77.90;96109.31;1652342;86;27440;-70
2022/11/22 06:41:13;;;;;;;93.62;49.00;;;;;;;-1.89;77.87;96108.82;1652091;86;25816;-72
2022/11/22 06:43:43;;;;;;;83.82;46.23;;;;;;;-1.88;77.82;96114.45;1652228;86;25835;-69
2022/11/22 06:46:10;;;;;;;87.60;47.98;;;;;;;-1.88;77.77;96110.97;1652390;86;26168;-75
2022/11/22 06:48:39;;;;;;;95.97;55.85;;;;;;;-1.88;77.78;96110.48;1652190;86;25779;-70
2022/11/22 06:51:12;;;;;;;103.83;55.88;;;;;;;-1.88;77.78;96110.48;1652256;86;28202;-70
2022/11/22 06:53:39;;;;;;;113.15;57.53;;;;;;;-1.87;77.76;96124.03;1652233;86;25813;-71
2022/11/22 06:56:19;;;;;;;121.17;65.72;;;;;;;-1.89;77.76;96122.05;1652296;86;25752;-72
2022/11/22 06:58:47;;;;;;;126.80;66.47;;;;;;;-1.86;77.81;96128.34;1652275;86;26781;-73
2022/11/22 07:01:25;;;;;;;112.90;56.45;;;;;;;-1.85;77.82;96126.52;1673063;85;25264;-70
2022/11/22 07:03:56;;;;;;;112.60;58.10;;;;;;;-1.86;77.85;96121.72;1679597;85;27412;-70
2022/11/22 07:06:26;;;;;;;106.43;44.30;;;;;;;-1.84;77.92;96127.68;1679850;85;25787;-72
2022/11/22 07:08:54;;;;;;;114.72;50.92;;;;;;;-1.81;78.02;96126.50;1679463;85;25754;-70
2022/11/22 07:11:24;;;;;;;78.87;41.77;;;;;;;-1.77;78.12;96132.29;1679786;85;26771;-71
2022/11/22 07:13:51;;;;;;;83.50;45.30;;;;;;;-1.75;78.15;96131.63;1679843;85;25527;-71
2022/11/22 07:16:55;;;;;;;100.25;54.80;;;;;;;-1.73;78.27;96135.77;1679685;85;27444;-73
2022/11/22 07:20:21;;;;;;;83.62;50.55;;;;;;;-1.71;78.29;96135.61;1687797;81;26660;-71
2022/11/22 07:23:12;;;;;;;80.55;48.70;;;;;;;-1.66;78.42;96134.10;1764722;80;25766;-72
2022/11/22 07:28:49;;;;;;;67.20;41.92;;;;;;;-1.55;78.62;96138.22;1775781;80;25407;-71
2022/11/22 07:31:34;;;;;;;69.45;41.53;;;;;;;-1.49;78.76;96136.25;1775733;80;28135;-71
2022/11/22 07:34:01;;;;;;;85.83;48.87;;;;;;;-1.45;78.83;96141.02;1775653;80;25491;-71
2022/11/22 07:36:29;;;;;;;94.70;52.43;;;;;;;-1.37;79.00;96126.96;1775477;80;25695;-71
2022/11/22 07:38:55;;;;;;;75.10;44.35;;;;;;;-1.30;79.08;96133.22;1775373;80;26007;-71
2022/11/22 07:41:22;;;;;;;69.12;40.88;;;;;;;-1.22;79.09;96131.07;1775903;80;25659;-71
2022/11/22 07:43:49;;;;;;;77.15;44.10;;;;;;;-1.16;79.20;96125.91;1775605;80;28083;-71
2022/11/22 07:46:28;;;;;;;80.07;43.75;;;;;;;-1.09;79.27;96112.83;1775598;80;25547;-71
2022/11/22 07:48:54;;;;;;;80.55;43.70;;;;;;;-1.01;79.33;96110.14;1775703;80;25718;-69
2022/11/22 07:51:21;;;;;;;66.92;36.88;;;;;;;-0.91;79.45;96120.03;1775849;80;25988;-71
2022/11/22 07:53:48;;;;;;;68.57;35.63;;;;;;;-0.81;79.57;96125.12;1775448;80;25620;-71
2022/11/22 07:56:16;;;;;;;59.00;33.18;;;;;;;-0.68;79.76;96129.87;1775782;80;27428;-69
2022/11/22 07:58:43;;;;;;;50.63;30.45;;;;;;;-0.59;79.81;96118.22;1775515;80;25731;-74
2022/11/22 08:01:16;;;;;;;61.77;33.00;;;;;;;-0.53;79.91;96114.39;1775862;80;25775;-70
2022/11/22 08:03:43;;;;;;;57.73;32.20;;;;;;;-0.44;80.03;96119.14;1775719;80;26030;-71
2022/11/22 08:06:12;;;;;;;56.05;31.80;;;;;;;-0.30;80.14;96116.25;1775685;80;25422;-71
2022/11/22 08:08:39;;;;;;;52.35;31.05;;;;;;;-0.17;80.05;96116.50;1775522;80;27438;-71
2022/11/22 08:11:06;;;;;;;49.27;30.68;;;;;;;-0.07;79.96;96109.95;1775524;80;25825;-73
2022/11/22 08:13:34;;;;;;;49.03;30.97;;;;;;;0.03;79.93;96107.55;1775735;80;25716;-71
2022/11/22 08:16:09;;;;;;;54.77;29.60;;;;;;;0.15;79.90;96108.79;1775665;80;26554;-73
2022/11/22 08:18:37;;;;;;;46.10;27.35;;;;;;;0.27;79.88;96112.17;1775715;79;25962;-72
2022/11/22 08:21:10;;;;;;;48.38;27.07;;;;;;;0.43;79.92;96118.34;1775568;80;27373;-70
2022/11/22 08:23:38;;;;;;;45.33;27.30;;;;;;;0.55;79.88;96115.58;1746783;82;25885;-76
2022/11/22 08:26:07;;;;;;;37.55;22.42;;;;;;;0.68;79.76;96113.13;1746368;82;25768;-73
2022/11/22 08:28:34;;;;;;;41.10;22.77;;;;;;;0.79;79.62;96117.99;1746597;82;26021;-73
2022/11/22 08:31:05;;;;;;;41.25;23.40;;;;;;;0.93;79.51;96121.67;1728644;82;26215;-73
2022/11/22 08:33:32;;;;;;;39.78;23.92;;;;;;;1.11;79.49;96126.61;1673289;85;27356;-72
2022/11/22 08:35:58;;;;;;;38.67;22.87;;;;;;;1.25;79.34;96124.45;1673092;85;25384;-76
2022/11/22 08:38:25;;;;;;;40.03;23.47;;;;;;;1.40;79.26;96129.25;1672187;85;25390;-76
2022/11/22 08:40:52;;;;;;;42.45;24.40;;;;;;;1.54;79.18;96115.62;1673252;85;26101;-76
2022/11/22 08:43:19;;;;;;;44.03;23.77;;;;;;;1.68;79.10;96118.76;1673322;85;26106;-74
2022/11/22 08:45:55;;;;;;;38.17;22.60;;;;;;;1.83;79.03;96117.36;1672084;85;27385;-76
2022/11/22 08:48:23;;;;;;;35.60;22.55;;;;;;;2.00;78.94;96122.78;1668001;85;25911;-74
2022/11/22 08:50:53;;;;;;;44.40;26.17;;;;;;;2.21;78.88;96120.11;1673468;85;25841;-74
2022/11/22 08:53:20;;;;;;;46.02;26.05;;;;;;;2.42;78.74;96116.09;1671250;85;26047;-74
2022/11/22 08:55:46;;;;;;;49.67;29.40;;;;;;;2.62;78.48;96106.13;1664261;86;25740;-74
2022/11/22 08:58:13;;;;;;;49.00;26.40;;;;;;;2.81;78.36;96104.93;1664301;86;27531;-76
2022/11/22 09:00:39;;;;;;;50.03;28.77;;;;;;;2.99;78.05;96108.45;1664041;86;25756;-74
2022/11/22 09:03:06;;;;;;;52.83;30.05;;;;;;;3.12;77.73;96109.86;1664254;86;25820;-76
2022/11/22 09:05:33;;;;;;;48.85;28.70;;;;;;;3.32;77.79;96115.80;1664246;86;25973;-75
2022/11/22 09:08:00;;;;;;;43.98;26.87;;;;;;;3.52;77.64;96115.38;1664323;86;25785;-74
2022/11/22 09:10:27;;;;;;;38.10;22.27;;;;;;;3.71;77.56;96114.65;1663985;86;28551;-73
2022/11/22 09:12:54;;;;;;;37.17;20.60;;;;;;;3.91;77.34;96127.54;1664118;86;25843;-74
2022/11/22 09:15:20;;;;;;;84.62;44.20;;;;;;;4.15;77.28;96122.16;1664369;86;25756;-76
2022/11/22 09:17:47;;;;;;;64.70;34.90;;;;;;;4.37;77.15;96118.80;1664489;85;26017;-73
2022/11/22 09:20:14;;;;;;;68.47;34.92;;;;;;;4.57;76.80;96122.33;1693160;83;25829;-74
2022/11/22 09:22:40;;;;;;;38.30;22.95;;;;;;;4.74;76.43;96116.55;1723312;82;28226;-73
2022/11/22 09:25:08;;;;;;;34.13;20.12;;;;;;;4.89;76.10;96109.15;1725239;83;25960;-76
2022/11/22 09:27:35;;;;;;;31.27;18.85;;;;;;;5.06;75.54;96107.19;1734305;82;25734;-74
2022/11/22 09:30:02;;;;;;;27.42;17.05;;;;;;;5.25;75.07;96102.81;1754852;80;26031;-74
2022/11/22 09:32:31;;;;;;;36.77;22.10;;;;;;;5.42;74.72;96104.02;1786836;80;25686;-74
2022/11/22 09:34:59;;;;;;;31.35;19.02;;;;;;;5.64;74.39;96102.38;1785177;80;27383;-74
2022/11/22 09:37:25;;;;;;;29.87;18.50;;;;;;;5.80;73.83;96096.52;1785161;80;25703;-76
2022/11/22 09:39:52;;;;;;;31.97;20.37;;;;;;;6.00;73.46;96099.98;1785304;80;25733;-75
2022/11/22 09:42:39;;;;;;;27.73;16.82;;;;;;;6.15;73.04;96093.00;1785328;80;25981;-74
2022/11/22 09:46:00;;;;;;;27.00;15.75;;;;;;;6.29;72.65;96097.73;1783335;80;26435;-76
2022/11/22 09:48:36;;;;;;;25.23;14.80;;;;;;;6.44;72.21;96095.57;1785373;80;27543;-76
2022/11/22 09:51:20;;;;;;;29.05;17.40;;;;;;;6.58;71.48;96094.95;1781827;80;25234;-74
2022/11/22 09:54:07;;;;;;;24.85;14.65;;;;;;;6.76;71.68;96091.80;1785112;80;25704;-74
2022/11/22 09:56:34;;;;;;;21.75;14.38;;;;;;;7.02;71.36;96087.24;1783383;80;25714;-76
2022/11/22 09:59:18;;;;;;;24.32;15.45;;;;;;;7.20;70.87;96094.00;1785578;80;25725;-74
2022/11/22 10:01:55;;;;;;;20.55;13.08;;;;;;;7.26;70.34;96094.44;1724027;83;27425;-74
2022/11/22 10:04:28;;;;;;;21.45;13.72;;;;;;;7.32;69.47;96084.69;1723903;83;25721;-73
2022/11/22 10:07:27;;;;;;;22.22;13.70;;;;;;;7.16;68.55;96078.85;1649440;86;35288;-74
2022/11/22 10:10:11;;;;;;;22.00;13.72;;;;;;;7.18;69.16;96078.11;1565637;91;25840;-74
2022/11/22 10:12:52;;;;;;;23.45;14.10;;;;;;;7.42;69.46;96080.44;1565980;91;26525;-75
2022/11/22 10:15:45;;;;;;;23.77;14.60;;;;;;;7.70;69.30;96079.09;1516733;94;27425;-76
2022/11/22 10:18:38;;;;;;;20.20;13.65;;;;;;;8.02;69.03;96072.46;1517146;94;25569;-73
2022/11/22 10:21:14;;;;;;;24.15;14.85;;;;;;;8.27;68.05;96071.80;1517526;94;25808;-73
2022/11/22 10:23:42;;;;;;;23.22;14.53;;;;;;;8.45;68.20;96068.79;1517418;94;26063;-73
2022/11/22 10:26:23;;;;;;;21.65;13.80;;;;;;;8.70;68.02;96069.39;1516954;94;25881;-72
2022/11/22 10:29:10;;;;;;;25.15;14.70;;;;;;;8.93;67.21;96069.45;1517342;94;27468;-73
2022/11/22 10:32:00;;;;;;;21.37;14.23;;;;;;;9.10;65.71;96067.37;1515331;94;25346;-73
2022/11/22 10:34:50;;;;;;;18.82;13.03;;;;;;;9.14;65.93;96065.87;1447276;98;25899;-74
2022/11/22 10:37:27;;;;;;;21.50;13.98;;;;;;;9.45;65.96;96061.44;1447173;98;26774;-74
2022/11/22 10:40:24;;;;;;;20.05;13.45;;;;;;;9.72;65.73;96059.86;1492728;95;25825;-73
2022/11/22 10:43:27;;;;;;;23.27;14.40;;;;;;;10.00;65.46;96053.69;1494021;95;27438;-73
2022/11/22 10:46:02;;;;;;;20.68;14.10;;;;;;;10.34;64.78;96046.53;1486346;96;25769;-75
2022/11/22 10:48:36;;;;;;;20.50;13.53;;;;;;;10.64;64.11;96052.96;1487261;95;25903;-74
2022/11/22 10:51:41;;;;;;;19.02;13.05;;;;;;;10.81;63.58;96044.88;1485269;96;26656;-73
2022/11/22 10:54:55;;;;;;;17.50;11.35;;;;;;;10.91;63.17;96049.62;1481869;96;25857;-73
2022/11/22 10:57:39;;;;;;;17.62;11.57;;;;;;;11.12;62.49;96046.98;1485719;96;27443;-72
2022/11/22 11:00:24;;;;;;;16.93;11.75;;;;;;;11.32;61.83;96047.82;1484969;96;25780;-73
2022/11/22 11:03:20;;;;;;;17.30;12.23;;;;;;;11.54;61.43;96050.02;1490208;92;25832;-73
2022/11/22 11:06:10;;;;;;;17.52;12.40;;;;;;;11.70;61.38;96050.22;1595174;87;26011;-73
2022/11/22 11:08:51;;;;;;;20.00;12.80;;;;;;;11.81;60.63;96043.37;1606378;88;25849;-75
2022/11/22 11:11:20;;;;;;;23.65;13.60;;;;;;;11.90;59.93;96042.38;1509996;93;28095;-72
2022/11/22 11:13:57;;;;;;;21.30;12.75;;;;;;;12.04;59.63;96042.81;1525724;93;25726;-72
2022/11/22 11:16:29;;;;;;;18.30;13.40;;;;;;;12.16;59.42;96043.48;1525476;93;25427;-75
2022/11/22 11:19:06;;;;;;;18.82;12.75;;;;;;;12.21;59.03;96035.41;1525755;93;26056;-74
2022/11/22 11:21:32;;;;;;;21.10;13.80;;;;;;;12.21;58.87;96031.35;1550325;88;25773;-73
2022/11/22 11:23:59;;;;;;;19.55;12.68;;;;;;;12.30;58.50;96034.44;1606282;88;28161;-73
2022/11/22 11:26:33;;;;;;;19.35;13.40;;;;;;;12.35;57.99;96035.29;1603001;88;25925;-73
2022/11/22 11:29:20;;;;;;;19.55;13.40;;;;;;;12.39;57.81;96033.72;1601039;88;25797;-73
2022/11/22 11:31:51;;;;;;;20.60;13.32;;;;;;;12.48;57.71;96024.05;1601735;88;25999;-74
2022/11/22 11:34:26;;;;;;;17.45;11.18;;;;;;;12.54;57.04;96023.05;1597003;88;25969;-74
2022/11/22 11:36:56;;;;;;;17.07;11.45;;;;;;;12.66;56.90;96016.11;1591598;89;27411;-73
2022/11/22 11:39:29;;;;;;;15.78;10.70;;;;;;;12.71;56.31;96016.66;1590777;89;25965;-73
2022/11/22 11:41:57;;;;;;;13.68;9.88;;;;;;;12.77;56.25;96010.23;1588580;89;26723;-77
2022/11/22 11:44:30;;;;;;;11.53;8.40;;;;;;;12.79;55.97;96013.50;1590126;88;26753;-73
2022/11/22 11:46:58;;;;;;;12.53;8.88;;;;;;;12.86;55.75;96010.02;1606571;88;25793;-73
2022/11/22 11:49:28;;;;;;;11.55;8.78;;;;;;;12.92;55.40;96007.65;1589555;88;27578;-74
2022/11/22 11:52:05;;;;;;;9.65;7.53;;;;;;;13.02;55.21;96008.25;1559208;92;25805;-74